sensor_id;sensor_type;location;lat;lon;timestamp;pressure;altitude;pressure_sealevel;temperature;humidity
49063;BME280;34876;51.464;-0.150;2023-02-28T00:01:55;103203.56;;;15.03;34.59
49063;BME280;34876;51.464;-0.150;2023-02-28T00:04:25;103197.74;;;15.40;34.01
49063;BME280;34876;51.464;-0.150;2023-02-28T00:06:54;103202.98;;;15.28;34.17
49063;BME280;34876;51.464;-0.150;2023-02-28T00:09:23;103203.19;;;15.44;34.07
49063;BME280;34876;51.464;-0.150;2023-02-28T00:11:51;103203.44;;;15.37;34.02
49063;BME280;34876;51.464;-0.150;2023-02-28T00:14:20;103206.04;;;15.67;33.67
49063;BME280;34876;51.464;-0.150;2023-02-28T00:16:51;103204.95;;;15.73;33.54
49063;BME280;34876;51.464;-0.150;2023-02-28T00:19:21;103203.17;;;15.36;33.44
49063;BME280;34876;51.464;-0.150;2023-02-28T00:21:50;103205.57;;;15.01;34.38
49063;BME280;34876;51.464;-0.150;2023-02-28T00:24:19;103201.75;;;14.90;34.75
49063;BME280;34876;51.464;-0.150;2023-02-28T00:26:48;103198.32;;;14.79;34.57
49063;BME280;34876;51.464;-0.150;2023-02-28T00:29:17;103192.22;;;15.11;34.62
49063;BME280;34876;51.464;-0.150;2023-02-28T00:31:46;103203.20;;;14.91;35.20
49063;BME280;34876;51.464;-0.150;2023-02-28T00:34:16;103203.83;;;15.39;34.29
49063;BME280;34876;51.464;-0.150;2023-02-28T00:36:45;103200.83;;;15.49;34.09
49063;BME280;34876;51.464;-0.150;2023-02-28T00:39:15;103196.35;;;15.73;33.65
49063;BME280;34876;51.464;-0.150;2023-02-28T00:41:44;103203.36;;;14.91;34.46
49063;BME280;34876;51.464;-0.150;2023-02-28T00:44:13;103203.81;;;14.31;36.02
49063;BME280;34876;51.464;-0.150;2023-02-28T00:46:43;103213.15;;;14.70;35.60
49063;BME280;34876;51.464;-0.150;2023-02-28T00:49:12;103203.25;;;15.31;34.39
49063;BME280;34876;51.464;-0.150;2023-02-28T00:51:41;103205.07;;;15.35;34.37
49063;BME280;34876;51.464;-0.150;2023-02-28T00:54:09;103207.81;;;15.46;34.01
49063;BME280;34876;51.464;-0.150;2023-02-28T00:56:38;103207.62;;;15.07;34.87
49063;BME280;34876;51.464;-0.150;2023-02-28T00:59:07;103208.38;;;15.14;34.75
49063;BME280;34876;51.464;-0.150;2023-02-28T01:03:13;103219.75;;;14.87;35.37
49063;BME280;34876;51.464;-0.150;2023-02-28T01:05:42;103220.90;;;14.47;35.56
49063;BME280;34876;51.464;-0.150;2023-02-28T01:08:11;103215.81;;;14.76;35.48
49063;BME280;34876;51.464;-0.150;2023-02-28T01:10:40;103209.22;;;15.43;34.29
49063;BME280;34876;51.464;-0.150;2023-02-28T01:13:10;103208.54;;;15.32;34.41
49063;BME280;34876;51.464;-0.150;2023-02-28T01:15:41;103208.23;;;15.39;34.39
49063;BME280;34876;51.464;-0.150;2023-02-28T01:18:12;103204.12;;;15.36;34.38
49063;BME280;34876;51.464;-0.150;2023-02-28T01:20:41;103215.55;;;14.33;36.38
49063;BME280;34876;51.464;-0.150;2023-02-28T01:23:11;103212.64;;;15.52;34.22
49063;BME280;34876;51.464;-0.150;2023-02-28T01:25:40;103224.11;;;14.77;35.73
49063;BME280;34876;51.464;-0.150;2023-02-28T01:28:09;103217.91;;;15.57;34.21
49063;BME280;34876;51.464;-0.150;2023-02-28T01:30:38;103221.58;;;15.71;33.89
49063;BME280;34876;51.464;-0.150;2023-02-28T01:33:08;103229.54;;;14.99;34.34
49063;BME280;34876;51.464;-0.150;2023-02-28T01:35:37;103218.81;;;15.77;33.80
49063;BME280;34876;51.464;-0.150;2023-02-28T01:38:07;103219.76;;;15.41;34.36
49063;BME280;34876;51.464;-0.150;2023-02-28T01:40:36;103218.10;;;15.85;33.61
49063;BME280;34876;51.464;-0.150;2023-02-28T01:43:08;103217.49;;;15.24;34.76
49063;BME280;34876;51.464;-0.150;2023-02-28T01:45:48;103216.97;;;15.78;33.71
49063;BME280;34876;51.464;-0.150;2023-02-28T01:48:18;103213.61;;;15.80;33.69
49063;BME280;34876;51.464;-0.150;2023-02-28T01:50:48;103218.82;;;15.53;33.82
49063;BME280;34876;51.464;-0.150;2023-02-28T01:53:24;103222.03;;;14.90;34.95
49063;BME280;34876;51.464;-0.150;2023-02-28T01:55:55;103216.28;;;15.70;34.03
49063;BME280;34876;51.464;-0.150;2023-02-28T01:58:25;103210.83;;;15.67;34.05
49063;BME280;34876;51.464;-0.150;2023-02-28T02:00:54;103223.72;;;14.77;35.24
49063;BME280;34876;51.464;-0.150;2023-02-28T02:03:23;103218.57;;;15.47;34.44
49063;BME280;34876;51.464;-0.150;2023-02-28T02:05:53;103219.43;;;15.54;34.33
49063;BME280;34876;51.464;-0.150;2023-02-28T02:08:25;103219.31;;;15.78;33.83
49063;BME280;34876;51.464;-0.150;2023-02-28T02:10:57;103226.20;;;15.19;34.96
49063;BME280;34876;51.464;-0.150;2023-02-28T02:13:39;103229.39;;;15.13;34.61
49063;BME280;34876;51.464;-0.150;2023-02-28T02:16:20;103227.54;;;14.95;35.57
49063;BME280;34876;51.464;-0.150;2023-02-28T02:18:53;103227.69;;;15.38;34.73
49063;BME280;34876;51.464;-0.150;2023-02-28T02:21:53;103224.33;;;15.27;34.95
49063;BME280;34876;51.464;-0.150;2023-02-28T02:24:52;103225.10;;;14.11;36.98
49063;BME280;34876;51.464;-0.150;2023-02-28T02:27:38;103220.99;;;15.67;34.21
49063;BME280;34876;51.464;-0.150;2023-02-28T02:30:28;103214.91;;;15.87;33.77
49063;BME280;34876;51.464;-0.150;2023-02-28T02:33:18;103218.22;;;15.84;33.84
49063;BME280;34876;51.464;-0.150;2023-02-28T02:35:54;103224.16;;;15.68;34.13
49063;BME280;34876;51.464;-0.150;2023-02-28T02:38:32;103220.94;;;15.25;34.87
49063;BME280;34876;51.464;-0.150;2023-02-28T02:41:09;103226.88;;;15.13;35.26
49063;BME280;34876;51.464;-0.150;2023-02-28T02:43:46;103222.16;;;15.26;34.97
49063;BME280;34876;51.464;-0.150;2023-02-28T02:46:20;103224.56;;;14.78;35.85
49063;BME280;34876;51.464;-0.150;2023-02-28T02:48:51;103218.86;;;15.68;34.27
49063;BME280;34876;51.464;-0.150;2023-02-28T02:51:23;103215.54;;;15.93;33.75
49063;BME280;34876;51.464;-0.150;2023-02-28T02:53:57;103211.06;;;16.04;33.53
49063;BME280;34876;51.464;-0.150;2023-02-28T02:56:32;103209.35;;;15.92;33.80
49063;BME280;34876;51.464;-0.150;2023-02-28T02:59:04;103213.68;;;16.05;33.53
49063;BME280;34876;51.464;-0.150;2023-02-28T03:01:37;103214.34;;;15.89;33.83
49063;BME280;34876;51.464;-0.150;2023-02-28T03:04:17;103212.45;;;16.05;33.54
49063;BME280;34876;51.464;-0.150;2023-02-28T03:06:51;103213.09;;;16.10;33.49
49063;BME280;34876;51.464;-0.150;2023-02-28T03:09:20;103217.63;;;14.91;35.57
49063;BME280;34876;51.464;-0.150;2023-02-28T03:11:49;103208.20;;;15.90;33.92
49063;BME280;34876;51.464;-0.150;2023-02-28T03:14:26;103207.75;;;16.06;33.54
49063;BME280;34876;51.464;-0.150;2023-02-28T03:17:23;103210.86;;;15.04;35.26
49063;BME280;34876;51.464;-0.150;2023-02-28T03:20:03;103200.09;;;15.72;34.30
49063;BME280;34876;51.464;-0.150;2023-02-28T03:22:46;103204.51;;;15.99;33.80
49063;BME280;34876;51.464;-0.150;2023-02-28T03:25:31;103205.24;;;16.05;33.65
49063;BME280;34876;51.464;-0.150;2023-02-28T03:28:08;103201.90;;;15.68;34.33
49063;BME280;34876;51.464;-0.150;2023-02-28T03:30:49;103205.33;;;16.01;33.78
49063;BME280;34876;51.464;-0.150;2023-02-28T03:33:21;103211.65;;;16.07;33.66
49063;BME280;34876;51.464;-0.150;2023-02-28T03:35:57;103214.50;;;15.98;33.80
49063;BME280;34876;51.464;-0.150;2023-02-28T03:38:31;103218.86;;;15.11;35.53
49063;BME280;34876;51.464;-0.150;2023-02-28T03:41:09;103215.21;;;15.92;33.92
49063;BME280;34876;51.464;-0.150;2023-02-28T03:43:44;103226.94;;;14.88;35.65
49063;BME280;34876;51.464;-0.150;2023-02-28T03:46:20;103227.63;;;14.69;36.11
49063;BME280;34876;51.464;-0.150;2023-02-28T03:49:03;103222.99;;;15.44;34.96
49063;BME280;34876;51.464;-0.150;2023-02-28T03:51:38;103234.63;;;14.21;37.18
49063;BME280;34876;51.464;-0.150;2023-02-28T03:54:12;103232.18;;;13.55;38.98
49063;BME280;34876;51.464;-0.150;2023-02-28T03:56:47;103230.59;;;14.47;36.68
49063;BME280;34876;51.464;-0.150;2023-02-28T03:59:22;103220.88;;;14.74;36.36
49063;BME280;34876;51.464;-0.150;2023-02-28T04:01:55;103213.51;;;15.30;35.28
49063;BME280;34876;51.464;-0.150;2023-02-28T04:04:31;103220.58;;;15.32;35.11
49063;BME280;34876;51.464;-0.150;2023-02-28T04:07:08;103227.29;;;14.26;37.47
49063;BME280;34876;51.464;-0.150;2023-02-28T04:09:39;103227.87;;;14.96;36.14
49063;BME280;34876;51.464;-0.150;2023-02-28T04:12:12;103233.53;;;14.67;36.52
49063;BME280;34876;51.464;-0.150;2023-02-28T04:14:42;103233.67;;;14.12;37.80
49063;BME280;34876;51.464;-0.150;2023-02-28T04:17:13;103225.56;;;15.55;34.91
49063;BME280;34876;51.464;-0.150;2023-02-28T04:19:42;103230.17;;;15.14;35.61
49063;BME280;34876;51.464;-0.150;2023-02-28T04:22:11;103231.67;;;14.14;37.69
49063;BME280;34876;51.464;-0.150;2023-02-28T04:24:41;103230.81;;;14.42;37.02
49063;BME280;34876;51.464;-0.150;2023-02-28T04:27:10;103222.65;;;15.31;35.30
49063;BME280;34876;51.464;-0.150;2023-02-28T04:29:39;103226.98;;;14.94;35.68
49063;BME280;34876;51.464;-0.150;2023-02-28T04:32:08;103227.98;;;15.20;35.48
49063;BME280;34876;51.464;-0.150;2023-02-28T04:34:38;103222.77;;;15.56;34.84
49063;BME280;34876;51.464;-0.150;2023-02-28T04:37:07;103229.82;;;15.64;34.51
49063;BME280;34876;51.464;-0.150;2023-02-28T04:39:38;103227.57;;;15.25;35.36
49063;BME280;34876;51.464;-0.150;2023-02-28T04:42:08;103235.12;;;14.92;35.83
49063;BME280;34876;51.464;-0.150;2023-02-28T04:44:37;103234.25;;;15.28;35.33
49063;BME280;34876;51.464;-0.150;2023-02-28T04:47:06;103242.87;;;15.18;35.54
49063;BME280;34876;51.464;-0.150;2023-02-28T04:49:35;103246.96;;;14.54;36.32
49063;BME280;34876;51.464;-0.150;2023-02-28T04:52:04;103249.85;;;14.45;37.02
49063;BME280;34876;51.464;-0.150;2023-02-28T04:54:34;103253.41;;;13.54;38.65
49063;BME280;34876;51.464;-0.150;2023-02-28T04:57:03;103253.69;;;14.77;36.26
49063;BME280;34876;51.464;-0.150;2023-02-28T04:59:37;103252.75;;;14.70;36.30
49063;BME280;34876;51.464;-0.150;2023-02-28T05:02:07;103247.86;;;15.02;35.94
49063;BME280;34876;51.464;-0.150;2023-02-28T05:04:36;103249.72;;;13.95;38.12
49063;BME280;34876;51.464;-0.150;2023-02-28T05:07:10;103247.18;;;15.30;35.51
49063;BME280;34876;51.464;-0.150;2023-02-28T05:09:39;103257.48;;;14.73;36.40
49063;BME280;34876;51.464;-0.150;2023-02-28T05:12:09;103250.91;;;15.30;35.36
49063;BME280;34876;51.464;-0.150;2023-02-28T05:14:39;103258.21;;;14.59;36.44
49063;BME280;34876;51.464;-0.150;2023-02-28T05:17:09;103263.21;;;13.07;39.59
49063;BME280;34876;51.464;-0.150;2023-02-28T05:19:38;103259.69;;;13.67;38.76
49063;BME280;34876;51.464;-0.150;2023-02-28T05:22:14;103258.60;;;14.71;36.62
49063;BME280;34876;51.464;-0.150;2023-02-28T05:24:45;103249.84;;;15.50;35.00
49063;BME280;34876;51.464;-0.150;2023-02-28T05:27:15;103255.74;;;14.87;36.18
49063;BME280;34876;51.464;-0.150;2023-02-28T05:29:45;103259.87;;;14.84;36.39
49063;BME280;34876;51.464;-0.150;2023-02-28T05:32:15;103254.85;;;15.39;35.31
49063;BME280;34876;51.464;-0.150;2023-02-28T05:34:44;103261.94;;;14.62;36.79
49063;BME280;34876;51.464;-0.150;2023-02-28T05:37:15;103258.56;;;15.29;35.37
49063;BME280;34876;51.464;-0.150;2023-02-28T05:39:45;103264.44;;;14.66;36.61
49063;BME280;34876;51.464;-0.150;2023-02-28T05:42:14;103264.24;;;15.04;35.72
49063;BME280;34876;51.464;-0.150;2023-02-28T05:44:44;103274.23;;;14.40;37.01
49063;BME280;34876;51.464;-0.150;2023-02-28T05:47:19;103276.22;;;14.27;37.48
49063;BME280;34876;51.464;-0.150;2023-02-28T05:49:50;103270.94;;;15.45;35.27
49063;BME280;34876;51.464;-0.150;2023-02-28T05:52:19;103275.63;;;15.23;35.67
49063;BME280;34876;51.464;-0.150;2023-02-28T05:54:53;103279.13;;;15.01;36.04
49063;BME280;34876;51.464;-0.150;2023-02-28T05:57:23;103278.46;;;13.73;38.65
49063;BME280;34876;51.464;-0.150;2023-02-28T05:59:51;103282.62;;;14.04;38.15
49063;BME280;34876;51.464;-0.150;2023-02-28T06:02:21;103286.21;;;13.78;38.55
49063;BME280;34876;51.464;-0.150;2023-02-28T06:04:51;103293.30;;;14.74;36.53
49063;BME280;34876;51.464;-0.150;2023-02-28T06:07:21;103292.34;;;14.56;36.84
49063;BME280;34876;51.464;-0.150;2023-02-28T06:09:55;103297.62;;;12.01;41.84
49063;BME280;34876;51.464;-0.150;2023-02-28T06:12:24;103292.95;;;13.69;38.97
49063;BME280;34876;51.464;-0.150;2023-02-28T06:14:53;103292.21;;;14.39;37.42
49063;BME280;34876;51.464;-0.150;2023-02-28T06:17:23;103293.71;;;15.10;35.78
49063;BME280;34876;51.464;-0.150;2023-02-28T06:19:52;103294.30;;;15.48;35.18
49063;BME280;34876;51.464;-0.150;2023-02-28T06:22:21;103295.34;;;15.33;35.42
49063;BME280;34876;51.464;-0.150;2023-02-28T06:24:52;103287.38;;;15.78;34.57
49063;BME280;34876;51.464;-0.150;2023-02-28T06:27:22;103294.28;;;15.54;35.06
49063;BME280;34876;51.464;-0.150;2023-02-28T06:29:54;103295.94;;;15.56;35.01
49063;BME280;34876;51.464;-0.150;2023-02-28T06:32:24;103288.22;;;15.77;34.60
49063;BME280;34876;51.464;-0.150;2023-02-28T06:34:55;103284.90;;;15.57;34.90
49063;BME280;34876;51.464;-0.150;2023-02-28T06:37:24;103281.17;;;15.92;34.27
49063;BME280;34876;51.464;-0.150;2023-02-28T06:39:54;103286.56;;;15.73;34.57
49063;BME280;34876;51.464;-0.150;2023-02-28T06:42:24;103291.84;;;15.31;35.46
49063;BME280;34876;51.464;-0.150;2023-02-28T06:44:58;103285.54;;;15.77;34.60
49063;BME280;34876;51.464;-0.150;2023-02-28T06:47:30;103291.85;;;15.25;35.56
49063;BME280;34876;51.464;-0.150;2023-02-28T06:49:59;103282.15;;;15.75;34.60
49063;BME280;34876;51.464;-0.150;2023-02-28T06:52:29;103288.08;;;15.15;35.62
49063;BME280;34876;51.464;-0.150;2023-02-28T06:54:59;103289.55;;;13.44;39.38
49063;BME280;34876;51.464;-0.150;2023-02-28T06:57:30;103287.49;;;14.95;36.37
49063;BME280;34876;51.464;-0.150;2023-02-28T07:00:00;103286.27;;;14.90;36.20
49063;BME280;34876;51.464;-0.150;2023-02-28T07:02:31;103283.38;;;15.61;35.04
49063;BME280;34876;51.464;-0.150;2023-02-28T07:05:01;103283.47;;;15.65;34.86
49063;BME280;34876;51.464;-0.150;2023-02-28T07:07:31;103282.92;;;15.88;34.36
49063;BME280;34876;51.464;-0.150;2023-02-28T07:10:01;103286.66;;;15.89;34.40
49063;BME280;34876;51.464;-0.150;2023-02-28T07:12:36;103285.62;;;15.96;34.29
49063;BME280;34876;51.464;-0.150;2023-02-28T07:15:09;103287.62;;;16.07;34.04
49063;BME280;34876;51.464;-0.150;2023-02-28T07:17:38;103291.67;;;16.12;33.96
49063;BME280;34876;51.464;-0.150;2023-02-28T07:20:09;103286.34;;;16.17;33.83
49063;BME280;34876;51.464;-0.150;2023-02-28T07:22:38;103295.24;;;14.88;35.84
49063;BME280;34876;51.464;-0.150;2023-02-28T07:25:09;103294.22;;;15.10;35.67
49063;BME280;34876;51.464;-0.150;2023-02-28T07:27:39;103294.75;;;15.77;34.42
49063;BME280;34876;51.464;-0.150;2023-02-28T07:30:14;103301.32;;;15.26;35.53
49063;BME280;34876;51.464;-0.150;2023-02-28T07:32:44;103298.15;;;15.76;34.59
49063;BME280;34876;51.464;-0.150;2023-02-28T07:35:14;103300.85;;;15.38;35.16
49063;BME280;34876;51.464;-0.150;2023-02-28T07:37:44;103296.52;;;15.81;34.60
49063;BME280;34876;51.464;-0.150;2023-02-28T07:40:15;103295.62;;;16.03;34.11
49063;BME280;34876;51.464;-0.150;2023-02-28T07:42:44;103300.63;;;15.03;35.89
49063;BME280;34876;51.464;-0.150;2023-02-28T07:45:14;103303.92;;;14.53;36.86
49063;BME280;34876;51.464;-0.150;2023-02-28T07:47:44;103303.14;;;15.09;36.03
49063;BME280;34876;51.464;-0.150;2023-02-28T07:50:30;103294.03;;;15.74;34.77
49063;BME280;34876;51.464;-0.150;2023-02-28T07:53:01;103300.88;;;15.47;34.90
49063;BME280;34876;51.464;-0.150;2023-02-28T07:55:38;103308.35;;;13.36;39.17
49063;BME280;34876;51.464;-0.150;2023-02-28T07:58:07;103305.54;;;13.86;38.44
49063;BME280;34876;51.464;-0.150;2023-02-28T08:00:36;103302.64;;;14.99;36.12
49063;BME280;34876;51.464;-0.150;2023-02-28T08:03:05;103302.97;;;14.51;37.17
49063;BME280;34876;51.464;-0.150;2023-02-28T08:05:38;103308.27;;;14.58;37.12
49063;BME280;34876;51.464;-0.150;2023-02-28T08:08:09;103302.66;;;15.66;35.04
49063;BME280;34876;51.464;-0.150;2023-02-28T08:10:37;103305.17;;;15.24;35.71
49063;BME280;34876;51.464;-0.150;2023-02-28T08:13:07;103305.06;;;15.80;34.68
49063;BME280;34876;51.464;-0.150;2023-02-28T08:15:37;103314.46;;;14.93;35.89
49063;BME280;34876;51.464;-0.150;2023-02-28T08:18:06;103311.80;;;15.29;35.43
49063;BME280;34876;51.464;-0.150;2023-02-28T08:20:40;103305.95;;;15.80;34.67
49063;BME280;34876;51.464;-0.150;2023-02-28T08:23:09;103306.24;;;16.01;34.22
49063;BME280;34876;51.464;-0.150;2023-02-28T08:25:44;103316.23;;;15.11;36.02
49063;BME280;34876;51.464;-0.150;2023-02-28T08:28:13;103313.90;;;14.61;37.00
49063;BME280;34876;51.464;-0.150;2023-02-28T08:30:43;103314.73;;;13.77;38.76
49063;BME280;34876;51.464;-0.150;2023-02-28T08:33:27;103309.73;;;14.29;37.33
49063;BME280;34876;51.464;-0.150;2023-02-28T08:35:58;103311.18;;;14.76;36.90
49063;BME280;34876;51.464;-0.150;2023-02-28T08:38:26;103312.06;;;14.26;37.74
49063;BME280;34876;51.464;-0.150;2023-02-28T08:40:58;103309.06;;;14.86;36.33
49063;BME280;34876;51.464;-0.150;2023-02-28T08:43:33;103307.92;;;15.43;35.54
49063;BME280;34876;51.464;-0.150;2023-02-28T08:46:11;103308.81;;;15.42;35.45
49063;BME280;34876;51.464;-0.150;2023-02-28T08:48:45;103308.13;;;15.20;35.86
49063;BME280;34876;51.464;-0.150;2023-02-28T08:51:16;103315.89;;;13.51;39.17
49063;BME280;34876;51.464;-0.150;2023-02-28T08:53:45;103330.90;;;11.46;43.69
49063;BME280;34876;51.464;-0.150;2023-02-28T08:56:15;103310.05;;;14.22;38.30
49063;BME280;34876;51.464;-0.150;2023-02-28T08:58:55;103312.37;;;13.30;40.08
49063;BME280;34876;51.464;-0.150;2023-02-28T09:01:26;103309.69;;;13.97;38.54
49063;BME280;34876;51.464;-0.150;2023-02-28T09:03:57;103313.11;;;13.00;40.50
49063;BME280;34876;51.464;-0.150;2023-02-28T09:06:27;103306.80;;;14.13;38.35
49063;BME280;34876;51.464;-0.150;2023-02-28T09:08:58;103313.55;;;13.24;40.03
49063;BME280;34876;51.464;-0.150;2023-02-28T09:11:28;103308.08;;;13.58;39.22
49063;BME280;34876;51.464;-0.150;2023-02-28T09:13:58;103313.87;;;11.66;43.51
49063;BME280;34876;51.464;-0.150;2023-02-28T09:16:29;103299.33;;;13.77;39.09
49063;BME280;34876;51.464;-0.150;2023-02-28T09:18:58;103295.97;;;14.67;37.30
49063;BME280;34876;51.464;-0.150;2023-02-28T09:21:33;103300.06;;;12.49;41.63
49063;BME280;34876;51.464;-0.150;2023-02-28T09:24:02;103301.20;;;13.13;40.51
49063;BME280;34876;51.464;-0.150;2023-02-28T09:26:32;103299.04;;;12.59;41.75
49063;BME280;34876;51.464;-0.150;2023-02-28T09:29:00;103295.78;;;14.44;37.61
49063;BME280;34876;51.464;-0.150;2023-02-28T09:31:30;103296.52;;;14.65;37.16
49063;BME280;34876;51.464;-0.150;2023-02-28T09:34:01;103292.74;;;14.74;37.14
49063;BME280;34876;51.464;-0.150;2023-02-28T09:36:33;103296.00;;;15.39;35.69
49063;BME280;34876;51.464;-0.150;2023-02-28T09:39:03;103289.36;;;15.13;36.23
49063;BME280;34876;51.464;-0.150;2023-02-28T09:41:39;103287.72;;;14.57;37.33
49063;BME280;34876;51.464;-0.150;2023-02-28T09:44:12;103284.52;;;15.35;35.78
49063;BME280;34876;51.464;-0.150;2023-02-28T09:46:48;103284.66;;;14.77;36.73
49063;BME280;34876;51.464;-0.150;2023-02-28T09:49:22;103282.27;;;14.63;37.06
49063;BME280;34876;51.464;-0.150;2023-02-28T09:51:57;103291.99;;;12.65;41.47
49063;BME280;34876;51.464;-0.150;2023-02-28T09:54:30;103287.05;;;13.45;40.02
49063;BME280;34876;51.464;-0.150;2023-02-28T09:57:07;103282.43;;;14.57;37.52
49063;BME280;34876;51.464;-0.150;2023-02-28T09:59:49;103275.96;;;14.93;36.82
49063;BME280;34876;51.464;-0.150;2023-02-28T10:02:38;103283.68;;;15.37;35.94
49063;BME280;34876;51.464;-0.150;2023-02-28T10:05:13;103286.20;;;15.33;35.90
49063;BME280;34876;51.464;-0.150;2023-02-28T10:07:56;103288.64;;;14.36;37.73
49063;BME280;34876;51.464;-0.150;2023-02-28T10:10:33;103309.77;;;11.22;44.65
49063;BME280;34876;51.464;-0.150;2023-02-28T10:13:07;103279.48;;;13.94;39.28
49063;BME280;34876;51.464;-0.150;2023-02-28T10:15:42;103289.17;;;14.79;37.31
49063;BME280;34876;51.464;-0.150;2023-02-28T10:18:23;103288.31;;;13.74;39.14
49063;BME280;34876;51.464;-0.150;2023-02-28T10:20:54;103281.96;;;15.09;36.56
49063;BME280;34876;51.464;-0.150;2023-02-28T10:23:28;103287.84;;;13.46;39.44
49063;BME280;34876;51.464;-0.150;2023-02-28T10:26:00;103283.77;;;12.03;42.90
49063;BME280;34876;51.464;-0.150;2023-02-28T10:28:35;103282.42;;;12.63;41.96
49063;BME280;34876;51.464;-0.150;2023-02-28T10:31:09;103288.32;;;10.53;47.15
49063;BME280;34876;51.464;-0.150;2023-02-28T10:33:40;103283.19;;;10.67;47.71
49063;BME280;34876;51.464;-0.150;2023-02-28T10:36:15;103274.03;;;12.48;42.76
49063;BME280;34876;51.464;-0.150;2023-02-28T10:38:47;103276.73;;;12.66;42.15
49063;BME280;34876;51.464;-0.150;2023-02-28T10:41:27;103271.25;;;13.95;39.47
49063;BME280;34876;51.464;-0.150;2023-02-28T10:44:14;103264.66;;;15.40;36.23
49063;BME280;34876;51.464;-0.150;2023-02-28T10:46:45;103274.13;;;13.93;39.17
49063;BME280;34876;51.464;-0.150;2023-02-28T10:49:17;103264.68;;;15.07;36.88
49063;BME280;34876;51.464;-0.150;2023-02-28T10:51:51;103260.09;;;15.68;35.58
49063;BME280;34876;51.464;-0.150;2023-02-28T10:54:29;103255.33;;;15.92;35.08
49063;BME280;34876;51.464;-0.150;2023-02-28T10:57:17;103263.01;;;15.10;37.40
49063;BME280;34876;51.464;-0.150;2023-02-28T10:59:51;103254.45;;;15.69;35.59
49063;BME280;34876;51.464;-0.150;2023-02-28T11:02:32;103266.52;;;13.40;40.25
49063;BME280;34876;51.464;-0.150;2023-02-28T11:05:23;103261.07;;;13.29;41.30
49063;BME280;34876;51.464;-0.150;2023-02-28T11:08:05;103259.87;;;14.44;38.85
49063;BME280;34876;51.464;-0.150;2023-02-28T11:10:45;103253.41;;;14.82;37.60
49063;BME280;34876;51.464;-0.150;2023-02-28T11:13:19;103243.47;;;15.40;37.25
49063;BME280;34876;51.464;-0.150;2023-02-28T11:15:55;103240.49;;;14.73;37.86
49063;BME280;34876;51.464;-0.150;2023-02-28T11:18:29;103231.96;;;15.45;36.26
49063;BME280;34876;51.464;-0.150;2023-02-28T11:21:01;103232.16;;;15.85;35.67
49063;BME280;34876;51.464;-0.150;2023-02-28T11:23:32;103239.96;;;14.97;37.34
49063;BME280;34876;51.464;-0.150;2023-02-28T11:26:05;103234.71;;;14.51;39.43
49063;BME280;34876;51.464;-0.150;2023-02-28T11:28:37;103229.18;;;15.09;37.26
49063;BME280;34876;51.464;-0.150;2023-02-28T11:31:17;103219.32;;;15.41;37.34
49063;BME280;34876;51.464;-0.150;2023-02-28T11:33:49;103205.57;;;15.82;35.71
49063;BME280;34876;51.464;-0.150;2023-02-28T11:36:21;103194.81;;;15.89;35.56
49063;BME280;34876;51.464;-0.150;2023-02-28T11:39:00;103174.59;;;16.07;35.44
49063;BME280;34876;51.464;-0.150;2023-02-28T11:41:40;103161.76;;;15.99;35.47
49063;BME280;34876;51.464;-0.150;2023-02-28T11:44:24;103177.52;;;16.18;35.04
49063;BME280;34876;51.464;-0.150;2023-02-28T11:46:59;103194.22;;;14.17;39.33
49063;BME280;34876;51.464;-0.150;2023-02-28T11:49:35;103208.89;;;14.85;38.74
49063;BME280;34876;51.464;-0.150;2023-02-28T11:52:28;103225.29;;;13.02;43.32
49063;BME280;34876;51.464;-0.150;2023-02-28T11:55:08;103217.13;;;14.91;39.74
49063;BME280;34876;51.464;-0.150;2023-02-28T11:57:55;103225.15;;;13.16;42.61
49063;BME280;34876;51.464;-0.150;2023-02-28T12:00:38;103215.90;;;13.75;42.59
49063;BME280;34876;51.464;-0.150;2023-02-28T12:03:21;103214.54;;;12.97;44.45
49063;BME280;34876;51.464;-0.150;2023-02-28T12:06:01;103202.16;;;14.80;38.54
49063;BME280;34876;51.464;-0.150;2023-02-28T12:08:47;103196.11;;;15.14;38.82
49063;BME280;34876;51.464;-0.150;2023-02-28T12:11:30;103196.36;;;15.06;38.40
49063;BME280;34876;51.464;-0.150;2023-02-28T12:14:19;103198.29;;;14.53;41.29
49063;BME280;34876;51.464;-0.150;2023-02-28T12:17:00;103190.05;;;13.31;42.02
49063;BME280;34876;51.464;-0.150;2023-02-28T12:19:38;103184.24;;;13.02;43.14
49063;BME280;34876;51.464;-0.150;2023-02-28T12:22:29;103180.69;;;13.03;44.28
49063;BME280;34876;51.464;-0.150;2023-02-28T12:25:16;103166.28;;;14.03;40.60
49063;BME280;34876;51.464;-0.150;2023-02-28T12:27:51;103162.05;;;14.45;40.43
49063;BME280;34876;51.464;-0.150;2023-02-28T12:30:28;103145.64;;;14.00;40.70
49063;BME280;34876;51.464;-0.150;2023-02-28T12:33:03;103130.40;;;15.00;38.58
49063;BME280;34876;51.464;-0.150;2023-02-28T12:35:39;103135.87;;;14.52;40.14
49063;BME280;34876;51.464;-0.150;2023-02-28T12:38:14;103132.43;;;14.50;41.37
49063;BME280;34876;51.464;-0.150;2023-02-28T12:40:49;103130.40;;;14.61;39.29
49063;BME280;34876;51.464;-0.150;2023-02-28T12:43:21;103126.67;;;14.82;38.80
49063;BME280;34876;51.464;-0.150;2023-02-28T12:45:56;103149.37;;;14.12;42.30
49063;BME280;34876;51.464;-0.150;2023-02-28T12:48:31;103143.65;;;12.93;44.66
49063;BME280;34876;51.464;-0.150;2023-02-28T12:51:06;103130.07;;;15.00;38.64
49063;BME280;34876;51.464;-0.150;2023-02-28T12:53:49;103129.84;;;14.86;40.41
49063;BME280;34876;51.464;-0.150;2023-02-28T12:56:24;103127.26;;;14.38;39.87
49063;BME280;34876;51.464;-0.150;2023-02-28T12:59:02;103121.88;;;14.17;40.68
49063;BME280;34876;51.464;-0.150;2023-02-28T13:01:47;103121.72;;;13.22;43.94
49063;BME280;34876;51.464;-0.150;2023-02-28T13:04:45;103113.10;;;12.82;43.91
49063;BME280;34876;51.464;-0.150;2023-02-28T13:07:29;103117.73;;;12.24;46.26
49063;BME280;34876;51.464;-0.150;2023-02-28T13:10:03;103102.44;;;12.06;46.82
49063;BME280;34876;51.464;-0.150;2023-02-28T13:12:34;103094.67;;;12.62;44.76
49063;BME280;34876;51.464;-0.150;2023-02-28T13:15:06;103092.80;;;13.31;44.29